Time;durP1;ratioP1;P1;durP2;ratioP2;P2;SDS_P1;SDS_P2;PMS_P1;PMS_P2;Temp;Humidity;BMP_temperature;BMP_pressure;BME280_temperature;BME280_humidity;BME280_pressure;Samples;Min_cycle;Max_cycle;Signal;HPM_P1;HPM_P2
2022/12/02 00:00:24;;;;;;;70.53;24.13;;;5.70;98.70;;;;;;5036803;28;20031;-76
2022/12/02 00:02:50;;;;;;;80.18;27.70;;;5.70;98.70;;;;;;5036567;28;20467;-76
2022/12/02 00:05:20;;;;;;;73.88;24.70;;;5.70;98.60;;;;;;5035518;28;20037;-76
2022/12/02 00:07:49;;;;;;;73.53;26.05;;;5.80;98.50;;;;;;5035490;28;20022;-75
2022/12/02 00:10:22;;;;;;;81.93;26.88;;;5.80;98.50;;;;;;5036106;28;20203;-75
2022/12/02 00:12:49;;;;;;;79.63;27.13;;;5.70;98.40;;;;;;5036948;28;20038;-75
2022/12/02 00:15:34;;;;;;;86.10;27.73;;;5.70;98.50;;;;;;5036675;28;20483;-75
2022/12/02 00:18:00;;;;;;;86.20;29.10;;;5.50;98.60;;;;;;5036805;28;20112;-76
2022/12/02 00:20:26;;;;;;;84.60;29.65;;;5.50;98.60;;;;;;5036469;28;20137;-76
2022/12/02 00:22:51;;;;;;;86.75;27.77;;;5.50;98.50;;;;;;5036579;28;20045;-77
2022/12/02 00:25:17;;;;;;;83.40;26.63;;;5.50;98.50;;;;;;5036440;28;20035;-76
2022/12/02 00:27:42;;;;;;;88.78;31.35;;;5.50;98.50;;;;;;5035644;28;20032;-76
2022/12/02 00:30:09;;;;;;;87.45;29.35;;;5.40;98.50;;;;;;5034300;28;20124;-75
2022/12/02 00:32:35;;;;;;;89.30;29.58;;;5.50;98.40;;;;;;5033298;28;20422;-76
2022/12/02 00:35:00;;;;;;;98.03;31.27;;;5.50;98.40;;;;;;5032258;28;20029;-75
2022/12/02 00:37:26;;;;;;;95.60;30.65;;;5.50;98.40;;;;;;5033231;28;20340;-75
2022/12/02 00:39:52;;;;;;;91.25;30.85;;;5.50;98.40;;;;;;5033694;28;20032;-76
2022/12/02 00:42:17;;;;;;;84.43;27.45;;;5.50;98.30;;;;;;5033186;28;20049;-76
2022/12/02 00:47:27;;;;;;;85.72;28.88;;;5.40;98.30;;;;;;5033053;28;20041;-75
2022/12/02 00:49:53;;;;;;;86.32;29.80;;;5.30;98.40;;;;;;5032102;28;20025;-77
2022/12/02 00:52:18;;;;;;;86.60;28.75;;;5.30;98.40;;;;;;5033073;28;20076;-76
2022/12/02 00:54:44;;;;;;;88.30;29.30;;;5.40;98.50;;;;;;5033451;28;20052;-76
2022/12/02 00:57:10;;;;;;;89.95;30.50;;;5.30;98.40;;;;;;5033094;28;20034;-77
2022/12/02 00:59:35;;;;;;;84.75;29.05;;;5.30;98.50;;;;;;5031980;28;20041;-78
2022/12/02 01:02:01;;;;;;;79.43;27.65;;;5.40;98.50;;;;;;5031909;28;20037;-77
2022/12/02 01:04:27;;;;;;;88.00;29.60;;;5.50;98.40;;;;;;5033172;28;20030;-77
2022/12/02 01:06:52;;;;;;;92.32;30.88;;;5.50;98.30;;;;;;5033841;28;20022;-76
2022/12/02 01:09:18;;;;;;;77.50;26.70;;;5.50;98.30;;;;;;5033436;28;20464;-75
2022/12/02 01:11:44;;;;;;;87.70;30.02;;;5.60;98.20;;;;;;5032406;28;20049;-75
2022/12/02 01:14:09;;;;;;;74.82;26.50;;;5.50;98.10;;;;;;5032526;28;20481;-76
2022/12/02 01:16:35;;;;;;;83.95;28.77;;;5.50;98.00;;;;;;5031414;28;20045;-75
2022/12/02 01:19:01;;;;;;;80.43;28.90;;;5.40;98.20;;;;;;5031618;28;20029;-76
2022/12/02 01:21:26;;;;;;;84.10;30.58;;;5.50;98.20;;;;;;5032155;28;20430;-76
2022/12/02 01:23:52;;;;;;;77.47;28.73;;;5.50;98.20;;;;;;5032233;28;20030;-76
2022/12/02 01:26:18;;;;;;;78.45;28.38;;;5.50;98.10;;;;;;5032267;28;20468;-76
2022/12/02 01:28:44;;;;;;;80.60;29.38;;;5.50;98.00;;;;;;5031037;28;20049;-76
2022/12/02 01:31:10;;;;;;;81.13;28.38;;;5.50;97.90;;;;;;5032682;28;20116;-75
2022/12/02 01:33:35;;;;;;;75.60;28.45;;;5.50;97.90;;;;;;5032110;28;20349;-75
2022/12/02 01:36:01;;;;;;;72.38;26.40;;;5.50;97.80;;;;;;5031887;28;20045;-74
2022/12/02 01:38:27;;;;;;;77.93;29.15;;;5.50;97.80;;;;;;5031979;28;20034;-76
2022/12/02 01:40:53;;;;;;;80.00;26.67;;;5.60;97.80;;;;;;5031967;28;20042;-77
2022/12/02 01:43:18;;;;;;;80.68;28.70;;;5.50;97.80;;;;;;5031127;28;20029;-76
2022/12/02 01:45:44;;;;;;;78.63;28.45;;;5.40;97.70;;;;;;5031494;28;20059;-76
2022/12/02 01:48:10;;;;;;;76.75;28.00;;;5.40;97.80;;;;;;5032100;28;20468;-76
2022/12/02 01:50:36;;;;;;;73.30;28.30;;;5.30;97.90;;;;;;5032180;28;20125;-76
2022/12/02 01:53:02;;;;;;;76.32;26.75;;;5.20;98.00;;;;;;5031863;28;20240;-76
2022/12/02 01:55:28;;;;;;;80.72;29.05;;;5.20;98.10;;;;;;5031999;28;20363;-76
2022/12/02 01:57:56;;;;;;;74.22;28.20;;;5.30;97.90;;;;;;5032324;28;20033;-78
2022/12/02 02:00:21;;;;;;;79.15;29.63;;;5.30;97.90;;;;;;5031085;28;20060;-78
2022/12/02 02:02:47;;;;;;;79.57;28.58;;;5.30;97.90;;;;;;5031945;28;20025;-76
2022/12/02 02:05:20;;;;;;;85.93;30.42;;;5.20;97.80;;;;;;5031693;28;20029;-76
2022/12/02 02:07:49;;;;;;;84.93;30.05;;;5.20;97.90;;;;;;5030819;28;20029;-77
2022/12/02 02:10:16;;;;;;;78.88;29.92;;;5.20;98.00;;;;;;5030512;28;20036;-77
2022/12/02 02:12:43;;;;;;;88.90;30.05;;;5.20;98.00;;;;;;5030727;28;20248;-78
2022/12/02 02:15:10;;;;;;;75.72;28.63;;;5.20;97.90;;;;;;5030844;28;20507;-75
2022/12/02 02:17:36;;;;;;;87.30;29.35;;;5.10;98.00;;;;;;5031827;28;20127;-76
2022/12/02 02:20:04;;;;;;;79.00;27.60;;;5.10;98.10;;;;;;5031548;28;20041;-76
2022/12/02 02:22:41;;;;;;;89.05;30.77;;;5.10;98.00;;;;;;5031347;28;20436;-76
2022/12/02 02:25:12;;;;;;;83.68;30.63;;;5.20;98.10;;;;;;5031673;28;20300;-76
2022/12/02 02:27:38;;;;;;;92.28;31.85;;;5.10;98.00;;;;;;5031250;28;20038;-77
2022/12/02 02:30:05;;;;;;;92.57;30.05;;;5.10;97.90;;;;;;5031501;28;20440;-76
2022/12/02 02:32:30;;;;;;;96.60;31.98;;;5.10;97.90;;;;;;5031064;28;20030;-76
2022/12/02 02:34:56;;;;;;;85.32;31.27;;;5.00;98.10;;;;;;5028929;28;20029;-76
2022/12/02 02:37:23;;;;;;;98.03;33.90;;;5.00;98.10;;;;;;5010139;28;20049;-78
2022/12/02 02:39:49;;;;;;;100.00;33.88;;;5.10;98.20;;;;;;5010907;28;20335;-77
2022/12/02 02:42:15;;;;;;;102.97;33.65;;;4.90;98.20;;;;;;5011190;28;20124;-77
2022/12/02 02:44:40;;;;;;;92.47;31.90;;;5.00;98.30;;;;;;5011262;28;20022;-78
2022/12/02 02:47:06;;;;;;;97.80;32.85;;;5.00;98.20;;;;;;5011218;28;20034;-76
2022/12/02 02:49:32;;;;;;;95.40;31.75;;;5.10;98.20;;;;;;5011196;28;20077;-77
2022/12/02 02:51:57;;;;;;;97.75;33.97;;;5.10;98.20;;;;;;5011491;28;20033;-76
2022/12/02 02:54:23;;;;;;;94.78;33.55;;;5.10;98.30;;;;;;5009519;28;20077;-77
2022/12/02 02:56:49;;;;;;;96.68;32.65;;;5.00;98.20;;;;;;5009768;28;20112;-76
2022/12/02 02:59:15;;;;;;;104.45;32.13;;;5.00;98.20;;;;;;5009841;28;20030;-76
2022/12/02 03:01:44;;;;;;;92.93;34.10;;;5.00;98.20;;;;;;5010833;28;20030;-76
2022/12/02 03:04:12;;;;;;;109.53;34.85;;;5.00;98.30;;;;;;5011127;28;20268;-78
2022/12/02 03:06:41;;;;;;;100.10;33.67;;;5.00;98.30;;;;;;5010953;28;20063;-77
2022/12/02 03:09:09;;;;;;;97.55;35.63;;;5.00;98.40;;;;;;5009714;28;20050;-77
2022/12/02 03:11:37;;;;;;;102.45;33.22;;;4.90;98.40;;;;;;5010893;28;20108;-76
2022/12/02 03:14:04;;;;;;;101.25;34.30;;;4.90;98.50;;;;;;5010929;28;20057;-77
2022/12/02 03:16:30;;;;;;;101.90;34.58;;;4.90;98.60;;;;;;5009511;28;20030;-76
2022/12/02 03:18:56;;;;;;;98.85;33.60;;;4.90;98.60;;;;;;5010160;28;20032;-76
2022/12/02 03:21:24;;;;;;;107.13;36.15;;;4.90;98.60;;;;;;5009728;28;20456;-76
2022/12/02 03:23:52;;;;;;;95.63;34.72;;;4.90;98.50;;;;;;5010772;28;20037;-76
2022/12/02 03:26:18;;;;;;;102.65;33.05;;;4.90;98.60;;;;;;5010845;28;20122;-74
2022/12/02 03:28:45;;;;;;;105.20;33.58;;;4.80;98.60;;;;;;5009647;28;20501;-74
2022/12/02 03:31:12;;;;;;;98.15;32.17;;;4.90;98.70;;;;;;5011037;28;20053;-77
2022/12/02 03:33:39;;;;;;;98.25;32.33;;;4.90;98.70;;;;;;5011141;28;20026;-76
2022/12/02 03:36:05;;;;;;;101.63;34.53;;;4.80;98.60;;;;;;5010697;28;20030;-77
2022/12/02 03:38:32;;;;;;;91.05;30.98;;;4.80;98.70;;;;;;5009439;28;20045;-76
2022/12/02 03:40:58;;;;;;;90.00;31.13;;;4.90;98.70;;;;;;5009495;28;20076;-75
2022/12/02 03:43:24;;;;;;;93.97;31.90;;;4.90;98.70;;;;;;5009650;28;20030;-77
2022/12/02 03:45:50;;;;;;;90.85;33.38;;;4.90;98.70;;;;;;5010154;28;20018;-77
2022/12/02 03:48:21;;;;;;;92.97;29.65;;;5.00;98.70;;;;;;5010723;28;20034;-76
2022/12/02 03:50:48;;;;;;;81.30;30.25;;;4.90;98.60;;;;;;5010696;28;20030;-77
2022/12/02 03:53:14;;;;;;;85.28;30.40;;;4.90;98.60;;;;;;5010613;28;20034;-77
2022/12/02 03:55:40;;;;;;;92.13;30.23;;;4.80;98.80;;;;;;5009382;28;20109;-76
2022/12/02 03:58:06;;;;;;;83.32;30.23;;;4.90;98.60;;;;;;5011329;28;20038;-76
2022/12/02 04:00:36;;;;;;;85.15;30.50;;;5.00;98.60;;;;;;5009391;28;20053;-77
2022/12/02 04:03:02;;;;;;;90.55;31.17;;;4.90;98.60;;;;;;5010653;28;20440;-77
2022/12/02 04:05:28;;;;;;;87.95;30.20;;;4.80;98.60;;;;;;5012100;28;20455;-77
2022/12/02 04:07:53;;;;;;;90.15;30.58;;;4.80;98.70;;;;;;5013460;28;20300;-76
2022/12/02 04:10:19;;;;;;;84.05;29.63;;;4.80;98.70;;;;;;5013956;28;20053;-75
2022/12/02 04:12:45;;;;;;;92.00;30.73;;;4.80;98.70;;;;;;5014419;28;20061;-76
2022/12/02 04:15:10;;;;;;;87.57;28.38;;;4.90;98.80;;;;;;5014112;28;20030;-79
2022/12/02 04:17:36;;;;;;;94.68;31.75;;;4.90;98.50;;;;;;5013971;28;20049;-77
2022/12/02 04:20:04;;;;;;;92.00;31.50;;;5.00;98.50;;;;;;5013635;28;20048;-76
2022/12/02 04:22:30;;;;;;;87.53;29.23;;;4.90;98.60;;;;;;5013549;28;20033;-75
2022/12/02 04:25:01;;;;;;;91.50;32.25;;;4.90;98.60;;;;;;5014200;28;20026;-75
2022/12/02 04:27:27;;;;;;;96.00;32.50;;;4.90;98.50;;;;;;5012781;28;20437;-76
2022/12/02 04:29:53;;;;;;;90.05;31.10;;;4.90;98.60;;;;;;5013925;28;20040;-77
2022/12/02 04:32:19;;;;;;;94.30;32.35;;;5.00;98.70;;;;;;5012556;28;20038;-79
2022/12/02 04:34:45;;;;;;;93.75;31.75;;;5.00;98.60;;;;;;5013457;28;20037;-77
2022/12/02 04:37:11;;;;;;;86.45;32.42;;;5.00;98.50;;;;;;5013920;28;20096;-76
2022/12/02 04:39:36;;;;;;;87.45;31.60;;;5.00;98.50;;;;;;5013867;28;20038;-76
2022/12/02 04:42:02;;;;;;;86.75;30.80;;;5.00;98.50;;;;;;5013419;28;20034;-78
2022/12/02 04:44:28;;;;;;;102.88;33.75;;;5.00;98.50;;;;;;5012406;28;20050;-78
2022/12/02 04:46:54;;;;;;;94.57;33.13;;;4.90;98.50;;;;;;5013379;28;20065;-77
2022/12/02 04:49:19;;;;;;;95.95;32.95;;;4.90;98.50;;;;;;5013462;28;20049;-76
2022/12/02 04:51:45;;;;;;;94.97;31.65;;;4.90;98.50;;;;;;5013834;28;20500;-76
2022/12/02 04:54:11;;;;;;;96.97;33.40;;;4.90;98.60;;;;;;5012239;28;20033;-75
2022/12/02 04:56:37;;;;;;;85.82;32.03;;;4.90;98.70;;;;;;5013398;28;20033;-76
2022/12/02 04:59:02;;;;;;;94.22;32.92;;;5.00;98.70;;;;;;5013241;28;20041;-76
2022/12/02 05:01:28;;;;;;;91.15;33.10;;;5.10;98.80;;;;;;5012246;28;20026;-77
2022/12/02 05:03:54;;;;;;;95.60;32.65;;;5.00;98.80;;;;;;5012696;28;20440;-76
2022/12/02 05:06:19;;;;;;;99.10;34.75;;;4.90;98.70;;;;;;5013552;28;20045;-76
2022/12/02 05:08:45;;;;;;;93.55;32.53;;;5.00;98.70;;;;;;5013170;28;20117;-75
2022/12/02 05:11:11;;;;;;;89.07;32.13;;;5.00;98.70;;;;;;5012848;28;20078;-77
2022/12/02 05:13:36;;;;;;;105.53;36.75;;;5.00;98.70;;;;;;5012848;28;20029;-77
2022/12/02 05:16:02;;;;;;;92.78;32.72;;;4.90;98.70;;;;;;5012260;28;20030;-77
2022/12/02 05:18:28;;;;;;;95.53;34.15;;;4.90;98.70;;;;;;5012613;28;20033;-76
2022/12/02 05:20:53;;;;;;;100.80;33.05;;;5.00;98.80;;;;;;5012910;28;20034;-77
2022/12/02 05:23:19;;;;;;;100.05;33.75;;;4.90;98.90;;;;;;5012814;28;20030;-77
2022/12/02 05:25:45;;;;;;;94.82;34.50;;;4.90;98.90;;;;;;5012780;28;20053;-77
2022/12/02 05:28:11;;;;;;;106.07;35.72;;;4.90;98.90;;;;;;5012145;28;20026;-76
2022/12/02 05:30:36;;;;;;;102.65;34.38;;;4.90;98.90;;;;;;5012819;28;20480;-76
2022/12/02 05:33:02;;;;;;;102.03;34.60;;;4.90;98.90;;;;;;5011536;28;20041;-77
2022/12/02 05:35:28;;;;;;;85.78;32.22;;;4.90;98.90;;;;;;5012707;28;20121;-77
2022/12/02 05:37:53;;;;;;;86.72;30.48;;;4.90;98.80;;;;;;5011398;28;20099;-76
2022/12/02 05:40:19;;;;;;;89.72;31.98;;;5.00;98.70;;;;;;5012617;28;20038;-78
2022/12/02 05:42:45;;;;;;;92.50;33.92;;;4.90;98.70;;;;;;5013702;28;20030;-77
2022/12/02 05:45:21;;;;;;;88.93;34.22;;;4.90;98.60;;;;;;5012682;28;20041;-77
2022/12/02 05:47:53;;;;;;;92.10;32.08;;;5.00;98.60;;;;;;5011537;28;20348;-74
2022/12/02 05:50:19;;;;;;;99.07;36.85;;;4.90;98.60;;;;;;5012439;28;20034;-76
2022/12/02 05:52:48;;;;;;;91.28;33.55;;;4.90;98.60;;;;;;5011159;28;20368;-75
2022/12/02 05:55:18;;;;;;;86.07;32.30;;;5.00;98.60;;;;;;5012421;28;20026;-75
2022/12/02 05:57:45;;;;;;;86.80;32.28;;;4.90;98.70;;;;;;5013195;28;20026;-76
2022/12/02 06:00:22;;;;;;;93.47;32.55;;;4.90;98.80;;;;;;5010996;28;20046;-78
2022/12/02 06:02:52;;;;;;;85.78;32.90;;;4.90;98.80;;;;;;5012224;28;20026;-75
2022/12/02 06:05:39;;;;;;;86.60;33.20;;;4.90;98.90;;;;;;5011328;28;20037;-76
2022/12/02 06:08:22;;;;;;;91.43;31.27;;;4.90;98.80;;;;;;5011759;28;20204;-76
2022/12/02 06:11:02;;;;;;;93.32;33.20;;;4.90;98.60;;;;;;5012298;28;20046;-75
2022/12/02 06:13:31;;;;;;;87.30;30.75;;;4.90;98.50;;;;;;5011004;28;20405;-74
2022/12/02 06:15:59;;;;;;;86.18;30.95;;;5.00;98.50;;;;;;5012424;28;20072;-74
2022/12/02 06:18:31;;;;;;;84.53;31.27;;;4.90;98.50;;;;;;5010623;28;20045;-76
2022/12/02 06:20:59;;;;;;;86.75;31.48;;;4.90;98.90;;;;;;5011693;28;20370;-75
2022/12/02 06:23:29;;;;;;;93.22;33.17;;;4.90;98.70;;;;;;5011137;28;20060;-76
2022/12/02 06:25:55;;;;;;;77.72;30.67;;;4.80;98.70;;;;;;5010917;28;20033;-74
2022/12/02 06:28:26;;;;;;;85.45;32.58;;;4.90;98.70;;;;;;5011464;28;20269;-76
2022/12/02 06:30:57;;;;;;;86.82;31.95;;;4.90;98.70;;;;;;5012329;28;20014;-76
2022/12/02 06:33:34;;;;;;;84.78;31.38;;;4.90;98.70;;;;;;5011875;28;20108;-77
2022/12/02 06:36:04;;;;;;;86.90;33.58;;;5.00;98.70;;;;;;5011935;28;20037;-76
2022/12/02 06:38:36;;;;;;;83.28;31.55;;;4.90;98.60;;;;;;5011967;28;20038;-77
2022/12/02 06:41:24;;;;;;;83.38;31.75;;;4.90;98.70;;;;;;5011249;28;20030;-78
2022/12/02 06:46:36;;;;;;;78.07;30.60;;;4.90;98.60;;;;;;5011540;28;20041;-78
2022/12/02 06:49:24;;;;;;;76.20;29.67;;;4.90;98.70;;;;;;5012190;28;20038;-77
2022/12/02 06:51:56;;;;;;;85.55;32.28;;;4.80;98.70;;;;;;5011488;28;20034;-76
2022/12/02 06:54:31;;;;;;;78.80;29.98;;;4.80;98.70;;;;;;5010662;28;20046;-78
2022/12/02 06:57:00;;;;;;;79.88;31.65;;;4.80;98.90;;;;;;5010278;28;20364;-76
2022/12/02 06:59:27;;;;;;;87.88;32.10;;;4.80;98.80;;;;;;5010446;28;20344;-77
2022/12/02 07:02:01;;;;;;;89.35;33.03;;;4.90;98.80;;;;;;5011467;28;20026;-78
2022/12/02 07:04:48;;;;;;;74.38;29.88;;;4.90;98.80;;;;;;5011730;28;20029;-74
2022/12/02 07:07:23;;;;;;;87.80;31.92;;;4.90;98.80;;;;;;5010467;28;20065;-76
2022/12/02 07:09:53;;;;;;;82.07;31.02;;;5.00;98.70;;;;;;5013486;28;20022;-76
2022/12/02 07:12:23;;;;;;;81.32;31.70;;;5.00;98.70;;;;;;5010370;28;20104;-77
2022/12/02 07:14:50;;;;;;;79.28;30.13;;;5.00;98.80;;;;;;5011835;28;20040;-78
2022/12/02 07:17:33;;;;;;;77.37;30.30;;;5.00;98.80;;;;;;5010288;28;20037;-75
2022/12/02 07:20:05;;;;;;;75.07;29.60;;;4.90;98.80;;;;;;5010761;28;20355;-73
2022/12/02 07:22:47;;;;;;;78.00;29.48;;;4.80;98.80;;;;;;5010151;28;20070;-71
2022/12/02 07:25:16;;;;;;;76.07;29.48;;;4.80;98.90;;;;;;5011028;28;20022;-73
2022/12/02 07:27:47;;;;;;;77.47;29.48;;;4.80;99.00;;;;;;5011037;28;20104;-76
2022/12/02 07:30:35;;;;;;;73.75;28.83;;;4.80;98.90;;;;;;5010692;28;20091;-75
2022/12/02 07:33:02;;;;;;;79.18;31.88;;;4.80;98.90;;;;;;5010627;28;20022;-75
2022/12/02 07:35:28;;;;;;;78.90;30.25;;;4.80;98.90;;;;;;5010874;28;20061;-78
2022/12/02 07:37:54;;;;;;;76.13;29.25;;;4.90;98.90;;;;;;5009375;28;20404;-75
2022/12/02 07:40:20;;;;;;;79.35;29.42;;;4.80;98.90;;;;;;5012594;28;20026;-75
2022/12/02 07:42:46;;;;;;;78.55;30.02;;;4.70;98.90;;;;;;5015270;28;20444;-75
2022/12/02 07:45:15;;;;;;;82.15;30.20;;;4.80;98.90;;;;;;5013766;28;20090;-76
2022/12/02 07:47:41;;;;;;;75.50;30.98;;;4.80;98.90;;;;;;5014736;28;20030;-75
2022/12/02 07:50:08;;;;;;;71.43;29.42;;;4.90;98.90;;;;;;5014623;28;20037;-74
2022/12/02 07:52:34;;;;;;;71.18;27.33;;;4.80;98.80;;;;;;5014470;28;20146;-74
2022/12/02 07:55:00;;;;;;;63.67;26.45;;;4.80;98.70;;;;;;5014460;28;20026;-75
2022/12/02 07:57:26;;;;;;;65.60;26.98;;;4.80;98.70;;;;;;5014938;28;20060;-75
2022/12/02 07:59:52;;;;;;;63.17;25.58;;;4.80;98.70;;;;;;5013702;28;20030;-77
2022/12/02 08:02:18;;;;;;;66.38;26.15;;;4.80;98.80;;;;;;5013642;28;20124;-75
2022/12/02 08:04:44;;;;;;;62.22;25.45;;;4.80;98.70;;;;;;5014307;28;20129;-78
2022/12/02 08:07:09;;;;;;;60.10;23.80;;;4.80;98.70;;;;;;5013926;28;20033;-77
2022/12/02 08:09:35;;;;;;;55.88;23.80;;;4.80;98.60;;;;;;5014210;28;20037;-74
2022/12/02 08:12:01;;;;;;;58.42;24.65;;;4.70;98.60;;;;;;5014546;28;20057;-72
2022/12/02 08:14:27;;;;;;;62.50;26.52;;;4.70;98.70;;;;;;5014328;28;20053;-74
2022/12/02 08:16:52;;;;;;;63.05;25.60;;;4.80;98.70;;;;;;5012894;28;20038;-73
2022/12/02 08:19:18;;;;;;;60.63;25.75;;;4.70;98.70;;;;;;5014097;28;20022;-75
2022/12/02 08:21:44;;;;;;;60.00;25.42;;;4.70;98.70;;;;;;5013267;28;20470;-74
2022/12/02 08:24:09;;;;;;;62.30;25.65;;;4.80;98.80;;;;;;5014152;28;20108;-77
2022/12/02 08:26:35;;;;;;;54.33;24.05;;;4.80;98.80;;;;;;5013100;28;20032;-75
2022/12/02 08:29:01;;;;;;;57.45;24.58;;;4.80;98.80;;;;;;5012542;28;20029;-74
2022/12/02 08:31:27;;;;;;;62.47;26.55;;;4.80;98.80;;;;;;5012520;28;20348;-72
2022/12/02 08:33:53;;;;;;;58.90;24.58;;;4.80;98.90;;;;;;5014487;28;20029;-76
2022/12/02 08:36:20;;;;;;;58.75;24.98;;;4.90;99.10;;;;;;5012440;28;20380;-75
2022/12/02 08:38:46;;;;;;;63.75;26.58;;;4.90;98.70;;;;;;5013699;28;20042;-75
2022/12/02 08:41:12;;;;;;;61.60;26.02;;;4.90;98.60;;;;;;5013814;28;20040;-75
2022/12/02 08:43:38;;;;;;;64.75;26.75;;;4.90;98.70;;;;;;5013512;28;20030;-74
2022/12/02 08:46:04;;;;;;;56.90;25.20;;;4.90;98.60;;;;;;5013890;28;20030;-78
2022/12/02 08:48:30;;;;;;;64.43;26.75;;;5.00;98.70;;;;;;5012346;28;20033;-76
2022/12/02 08:50:56;;;;;;;62.25;26.25;;;4.90;98.60;;;;;;5013056;28;20135;-74
2022/12/02 08:53:22;;;;;;;63.92;27.50;;;4.80;98.70;;;;;;5012374;28;20030;-75
2022/12/02 08:55:48;;;;;;;65.53;27.75;;;4.80;98.90;;;;;;5012222;28;20041;-74
2022/12/02 08:58:14;;;;;;;64.97;28.08;;;4.90;99.20;;;;;;5013295;28;20038;-73
2022/12/02 09:00:40;;;;;;;66.88;28.30;;;4.90;98.70;;;;;;5013960;28;20407;-74
2022/12/02 09:03:07;;;;;;;62.45;26.83;;;5.00;98.70;;;;;;5011830;28;20049;-73
2022/12/02 09:05:34;;;;;;;68.88;28.52;;;4.90;98.70;;;;;;5012918;28;20026;-74
2022/12/02 09:08:00;;;;;;;62.40;26.48;;;4.90;98.70;;;;;;5013077;28;20122;-75
2022/12/02 09:10:26;;;;;;;64.70;27.52;;;4.80;98.80;;;;;;5013000;28;20033;-73
2022/12/02 09:12:52;;;;;;;69.20;28.42;;;4.80;98.90;;;;;;5013289;28;20041;-73
2022/12/02 09:15:19;;;;;;;66.28;27.35;;;4.90;99.00;;;;;;5012705;28;20476;-73
2022/12/02 09:17:46;;;;;;;68.90;28.67;;;5.00;99.00;;;;;;5013034;28;20464;-73
2022/12/02 09:20:12;;;;;;;64.57;27.63;;;5.00;98.90;;;;;;5012562;28;20034;-73
2022/12/02 09:22:38;;;;;;;67.35;27.48;;;5.00;98.90;;;;;;5012685;28;20029;-73
2022/12/02 09:25:05;;;;;;;69.55;28.20;;;5.10;98.80;;;;;;5011941;28;20029;-74
2022/12/02 09:27:31;;;;;;;68.03;29.98;;;5.10;99.10;;;;;;5013000;28;20117;-76
2022/12/02 09:29:57;;;;;;;63.38;26.75;;;5.10;98.90;;;;;;5011664;28;20022;-73
2022/12/02 09:32:23;;;;;;;64.57;27.40;;;5.10;98.70;;;;;;5012601;28;20038;-74
2022/12/02 09:34:49;;;;;;;67.50;28.00;;;5.10;99.00;;;;;;5012325;28;20056;-75
2022/12/02 09:37:15;;;;;;;67.90;28.13;;;5.00;98.70;;;;;;5012184;28;20455;-74
2022/12/02 09:39:40;;;;;;;65.28;27.38;;;5.10;98.80;;;;;;5013141;28;20037;-75
2022/12/02 09:42:08;;;;;;;62.95;26.38;;;5.00;98.60;;;;;;5012424;28;20038;-75
2022/12/02 09:44:35;;;;;;;68.25;28.10;;;5.00;98.60;;;;;;5011343;28;20042;-73
2022/12/02 09:47:00;;;;;;;63.80;25.80;;;5.00;98.70;;;;;;5012175;28;20103;-73
2022/12/02 09:49:26;;;;;;;62.35;25.90;;;5.00;98.80;;;;;;5012201;28;20057;-74
2022/12/02 09:51:59;;;;;;;63.65;27.10;;;4.90;98.90;;;;;;5012778;28;20032;-75
2022/12/02 09:54:25;;;;;;;62.42;26.23;;;5.00;98.90;;;;;;5011413;28;20133;-73
2022/12/02 09:56:50;;;;;;;65.47;27.08;;;5.00;98.90;;;;;;5011889;28;20030;-74
2022/12/02 09:59:17;;;;;;;70.07;27.02;;;5.00;98.90;;;;;;5010981;28;20561;-71
2022/12/02 10:01:47;;;;;;;67.43;27.45;;;5.00;99.10;;;;;;5011914;28;20026;-74
2022/12/02 10:04:19;;;;;;;60.40;26.30;;;5.00;99.10;;;;;;5011775;28;20040;-72
2022/12/02 10:06:45;;;;;;;60.28;25.90;;;5.10;99.00;;;;;;5012014;28;20198;-75
2022/12/02 10:09:28;;;;;;;63.63;26.63;;;5.10;98.90;;;;;;5011779;28;20332;-74
2022/12/02 10:12:00;;;;;;;65.50;26.85;;;5.20;98.70;;;;;;5010725;28;20396;-75
2022/12/02 10:14:26;;;;;;;61.28;25.38;;;5.10;98.80;;;;;;5013205;28;20038;-76
2022/12/02 10:16:52;;;;;;;66.93;25.90;;;5.10;98.90;;;;;;5010973;28;20045;-77
2022/12/02 10:19:19;;;;;;;61.42;24.73;;;5.20;99.00;;;;;;5011064;28;20249;-75
2022/12/02 10:21:45;;;;;;;59.40;24.48;;;5.20;98.70;;;;;;5011093;28;20029;-75
2022/12/02 10:24:12;;;;;;;55.95;26.38;;;5.20;98.70;;;;;;5010462;28;20368;-75
2022/12/02 10:26:51;;;;;;;55.90;25.40;;;5.30;98.70;;;;;;5011935;28;20041;-75
2022/12/02 10:29:27;;;;;;;57.90;24.67;;;5.20;98.60;;;;;;5012155;28;20049;-72
2022/12/02 10:32:01;;;;;;;56.33;24.67;;;5.20;98.50;;;;;;5011517;28;20029;-75
2022/12/02 10:34:29;;;;;;;62.20;26.85;;;5.30;98.60;;;;;;5010312;28;20116;-74
2022/12/02 10:36:54;;;;;;;64.25;25.80;;;5.20;98.50;;;;;;5011940;28;20040;-71
2022/12/02 10:39:23;;;;;;;59.28;25.17;;;5.20;98.60;;;;;;5011519;28;20026;-73
2022/12/02 10:42:06;;;;;;;60.13;24.25;;;5.20;98.60;;;;;;5010309;28;20038;-75
2022/12/02 10:44:37;;;;;;;57.03;24.20;;;5.10;98.50;;;;;;5010291;28;20033;-73
2022/12/02 10:47:15;;;;;;;64.13;25.88;;;5.20;98.60;;;;;;5011436;28;20265;-79
2022/12/02 10:49:56;;;;;;;60.40;25.92;;;5.10;98.50;;;;;;5011182;28;20030;-83
2022/12/02 10:52:28;;;;;;;58.97;25.15;;;5.10;98.50;;;;;;5010118;28;20029;-74
2022/12/02 10:54:55;;;;;;;54.92;24.88;;;5.10;98.50;;;;;;5011242;28;20060;-72
2022/12/02 10:57:43;;;;;;;57.63;24.42;;;5.20;98.50;;;;;;5009720;28;20025;-73
2022/12/02 11:00:16;;;;;;;55.00;24.45;;;5.20;98.50;;;;;;5011278;28;20315;-73
2022/12/02 11:02:45;;;;;;;55.63;24.52;;;5.20;98.40;;;;;;5011011;28;20041;-73
2022/12/02 11:05:15;;;;;;;56.47;24.08;;;5.20;98.20;;;;;;5009679;28;20030;-72
2022/12/02 11:07:48;;;;;;;61.55;25.15;;;5.30;98.20;;;;;;5010586;28;20467;-73
2022/12/02 11:10:20;;;;;;;58.05;25.75;;;5.30;98.30;;;;;;5010981;28;20040;-72
2022/12/02 11:12:51;;;;;;;59.35;25.80;;;5.30;98.30;;;;;;5010855;28;20463;-72
2022/12/02 11:15:34;;;;;;;57.97;24.73;;;5.30;98.30;;;;;;5009011;28;20029;-74
2022/12/02 11:18:01;;;;;;;56.30;24.45;;;5.40;98.30;;;;;;5008911;28;20560;-74
2022/12/02 11:20:35;;;;;;;56.58;25.25;;;5.40;98.20;;;;;;5010796;28;20476;-71
2022/12/02 11:23:07;;;;;;;57.30;24.88;;;5.40;98.10;;;;;;5009631;28;20091;-74
2022/12/02 11:25:42;;;;;;;61.03;26.00;;;5.40;98.10;;;;;;5010960;28;20025;-74
2022/12/02 11:28:17;;;;;;;58.80;26.17;;;5.30;98.00;;;;;;5009934;28;20144;-74
2022/12/02 11:30:45;;;;;;;61.85;26.83;;;5.40;98.20;;;;;;5010755;28;20042;-75
2022/12/02 11:33:13;;;;;;;56.85;26.55;;;5.40;98.20;;;;;;5010987;28;20034;-73
2022/12/02 11:36:17;;;;;;;59.17;26.30;;;5.50;98.10;;;;;;5010571;28;20341;-73
2022/12/02 11:38:52;;;;;;;53.47;24.80;;;5.50;97.90;;;;;;5010470;28;20105;-73
2022/12/02 11:41:24;;;;;;;48.28;23.17;;;5.50;97.60;;;;;;5010798;28;20025;-74
2022/12/02 11:43:58;;;;;;;48.50;23.60;;;5.50;97.50;;;;;;5010647;28;20415;-76
2022/12/02 11:46:49;;;;;;;52.63;23.60;;;5.50;97.40;;;;;;5010689;28;20058;-75
2022/12/02 11:49:35;;;;;;;45.53;21.70;;;5.50;97.60;;;;;;5010681;28;20025;-74
2022/12/02 11:52:03;;;;;;;53.40;23.90;;;5.50;97.40;;;;;;5010852;28;20099;-75
2022/12/02 11:54:29;;;;;;;45.30;21.20;;;5.40;97.40;;;;;;5009279;28;20381;-75
2022/12/02 11:56:56;;;;;;;46.85;20.40;;;5.40;97.50;;;;;;5010743;28;20049;-75
2022/12/02 11:59:28;;;;;;;44.45;19.90;;;5.40;97.30;;;;;;5009605;28;20046;-76
2022/12/02 12:02:18;;;;;;;44.47;21.05;;;5.50;97.10;;;;;;5010404;28;20472;-76
2022/12/02 12:04:45;;;;;;;41.22;19.48;;;5.50;97.10;;;;;;5010610;28;20069;-75
2022/12/02 12:07:12;;;;;;;44.33;19.90;;;5.50;97.10;;;;;;5009918;28;20026;-76
2022/12/02 12:09:38;;;;;;;46.75;21.50;;;5.50;97.00;;;;;;5010716;28;20049;-75
2022/12/02 12:12:14;;;;;;;41.70;19.75;;;5.60;97.20;;;;;;5010074;28;20527;-75
2022/12/02 12:14:53;;;;;;;44.63;21.23;;;5.50;97.20;;;;;;5010446;28;20392;-78
2022/12/02 12:17:37;;;;;;;45.13;21.25;;;5.50;97.40;;;;;;5010037;28;20062;-75
2022/12/02 12:20:12;;;;;;;47.28;20.00;;;5.50;97.60;;;;;;5009886;28;20048;-72
2022/12/02 12:22:38;;;;;;;43.15;20.48;;;5.50;97.60;;;;;;5009902;28;20037;-83
2022/12/02 12:25:41;;;;;;;44.47;21.00;;;5.50;97.70;;;;;;5010843;28;20030;-76
2022/12/02 12:28:26;;;;;;;42.28;20.42;;;5.50;97.70;;;;;;5014152;28;20061;-73
2022/12/02 12:30:53;;;;;;;41.72;19.40;;;5.50;97.80;;;;;;5013145;28;20176;-73
2022/12/02 12:33:19;;;;;;;38.25;18.88;;;5.50;97.80;;;;;;5014134;28;20034;-75
2022/12/02 12:35:44;;;;;;;49.28;20.52;;;5.50;97.90;;;;;;5014023;28;20114;-74
2022/12/02 12:38:10;;;;;;;44.47;21.27;;;5.50;98.00;;;;;;5013353;28;20623;-72
2022/12/02 12:40:36;;;;;;;45.55;20.33;;;5.50;98.20;;;;;;5013429;28;20388;-76
2022/12/02 12:43:02;;;;;;;42.70;19.85;;;5.60;98.30;;;;;;5013675;28;20056;-75
2022/12/02 12:45:27;;;;;;;39.13;19.30;;;5.60;98.30;;;;;;5013804;28;20176;-75
2022/12/02 12:47:53;;;;;;;42.50;20.08;;;5.60;98.50;;;;;;5012084;28;20026;-73